Time;durP1;ratioP1;P1;durP2;ratioP2;P2;SDS_P1;SDS_P2;PMS_P1;PMS_P2;Temp;Humidity;BMP_temperature;BMP_pressure;BME280_temperature;BME280_humidity;BME280_pressure;Samples;Min_cycle;Max_cycle;Signal;HPM_P1;HPM_P2
2021/06/25 00:03:26;;;;;;;105.20;53.93;;;17.20;99.90;;;;;;8352026;28;20437;-77
2021/06/25 00:07:26;;;;;;;117.53;49.50;;;17.20;99.90;;;;;;8357864;28;20266;-77
2021/06/25 00:11:27;;;;;;;105.33;54.00;;;17.20;99.90;;;;;;8347775;28;21279;-77
2021/06/25 00:15:28;;;;;;;107.13;53.23;;;17.10;99.90;;;;;;8351614;28;20208;-77
2021/06/25 00:19:29;;;;;;;99.90;50.33;;;17.00;99.90;;;;;;8337009;28;20990;-76
2021/06/25 00:23:30;;;;;;;112.40;51.13;;;17.00;99.90;;;;;;8347504;28;20213;-77
2021/06/25 00:27:30;;;;;;;113.10;49.90;;;17.00;99.90;;;;;;8356735;28;20441;-77
2021/06/25 00:31:33;;;;;;;100.53;49.97;;;16.90;99.90;;;;;;8362513;28;20217;-77
2021/06/25 00:35:34;;;;;;;109.23;53.73;;;16.90;99.90;;;;;;8358706;28;20231;-77
2021/06/25 00:39:35;;;;;;;100.17;50.97;;;16.80;99.90;;;;;;8354680;28;20477;-77
2021/06/25 00:43:39;;;;;;;127.53;53.97;;;16.80;99.90;;;;;;8354014;28;20830;-77
2021/06/25 00:47:41;;;;;;;103.07;50.77;;;16.80;99.90;;;;;;8359651;28;20536;-77
2021/06/25 00:51:43;;;;;;;121.07;54.40;;;16.70;99.90;;;;;;8355412;28;20441;-77
2021/06/25 00:55:43;;;;;;;109.40;54.97;;;16.70;99.90;;;;;;8360538;28;20480;-77
2021/06/25 00:59:44;;;;;;;135.37;58.50;;;16.70;99.90;;;;;;8360128;28;20808;-77
2021/06/25 01:03:45;;;;;;;112.83;54.17;;;16.70;99.90;;;;;;8357332;28;20191;-76
2021/06/25 01:07:46;;;;;;;122.13;58.70;;;16.70;99.90;;;;;;8357866;28;20175;-76
2021/06/25 01:11:47;;;;;;;122.20;59.57;;;16.70;99.90;;;;;;8355619;28;20558;-76
2021/06/25 01:15:47;;;;;;;119.60;57.27;;;16.70;99.90;;;;;;8352801;28;20798;-77
2021/06/25 01:19:50;;;;;;;114.90;52.93;;;16.70;99.90;;;;;;8362163;28;20572;-76
2021/06/25 01:23:51;;;;;;;114.47;54.07;;;16.70;99.90;;;;;;8359294;28;20190;-76
2021/06/25 01:27:54;;;;;;;116.27;53.20;;;16.70;99.90;;;;;;8349663;28;20434;-76
2021/06/25 01:31:55;;;;;;;111.80;54.37;;;16.70;99.90;;;;;;8354266;28;20191;-77
2021/06/25 01:35:56;;;;;;;115.73;54.57;;;16.70;99.90;;;;;;8360736;28;20465;-77
2021/06/25 01:39:57;;;;;;;131.20;63.03;;;16.70;99.90;;;;;;8354715;28;20222;-77
2021/06/25 01:43:58;;;;;;;120.07;54.47;;;16.70;99.90;;;;;;8364530;28;20552;-77
2021/06/25 01:48:02;;;;;;;127.33;58.90;;;16.60;99.90;;;;;;8352956;28;20560;-77
2021/06/25 01:52:06;;;;;;;129.07;60.23;;;16.70;99.90;;;;;;8358213;28;20446;-77
2021/06/25 01:56:07;;;;;;;127.03;59.07;;;16.60;99.90;;;;;;8352904;28;20846;-77
2021/06/25 02:00:09;;;;;;;147.17;61.13;;;16.60;99.90;;;;;;8360626;28;20840;-77
2021/06/25 02:04:09;;;;;;;129.37;60.00;;;16.60;99.90;;;;;;8356090;28;20390;-77
2021/06/25 02:08:10;;;;;;;119.17;56.30;;;16.50;99.90;;;;;;8359497;28;20445;-77
2021/06/25 02:12:11;;;;;;;122.23;56.80;;;16.50;99.90;;;;;;8354807;28;20654;-76
2021/06/25 02:16:11;;;;;;;113.53;56.20;;;16.40;99.90;;;;;;8352301;28;20641;-77
2021/06/25 02:20:13;;;;;;;123.43;57.60;;;16.40;99.90;;;;;;8348334;28;20187;-77
2021/06/25 02:24:14;;;;;;;117.47;56.10;;;16.40;99.90;;;;;;8360633;28;20179;-77
2021/06/25 02:28:15;;;;;;;122.57;56.70;;;16.30;99.90;;;;;;8352423;28;20525;-76
2021/06/25 02:32:15;;;;;;;146.43;62.87;;;16.30;99.90;;;;;;8354370;28;20468;-77
2021/06/25 02:36:16;;;;;;;131.40;61.53;;;16.20;99.90;;;;;;8346295;28;20211;-77
2021/06/25 02:40:17;;;;;;;124.90;58.37;;;16.20;99.90;;;;;;8351741;28;20796;-76
2021/06/25 02:44:20;;;;;;;141.57;60.50;;;16.10;99.90;;;;;;8355241;28;20187;-77
2021/06/25 02:48:20;;;;;;;129.23;59.83;;;16.10;99.90;;;;;;8363261;28;20191;-77
2021/06/25 02:52:30;;;;;;;139.07;62.50;;;16.10;99.90;;;;;;8357855;28;20590;-77
2021/06/25 02:56:33;;;;;;;126.73;63.13;;;16.10;99.90;;;;;;8358179;28;20248;-77
2021/06/25 03:00:34;;;;;;;144.27;63.97;;;16.10;99.90;;;;;;8366315;28;20437;-77
2021/06/25 03:04:34;;;;;;;140.60;64.50;;;16.10;99.90;;;;;;8361719;28;20436;-77
2021/06/25 03:08:35;;;;;;;152.63;66.53;;;16.10;99.90;;;;;;8360062;28;20433;-77
2021/06/25 03:12:38;;;;;;;145.47;65.20;;;16.10;99.90;;;;;;8357084;28;20210;-77
2021/06/25 03:16:41;;;;;;;161.00;72.13;;;16.20;99.90;;;;;;8357815;28;20210;-78
2021/06/25 03:20:42;;;;;;;135.30;64.27;;;16.10;99.90;;;;;;8353134;28;20440;-76
2021/06/25 03:24:43;;;;;;;138.40;61.73;;;16.10;99.90;;;;;;8357681;28;20540;-76
2021/06/25 03:28:43;;;;;;;137.10;66.50;;;16.10;99.90;;;;;;8346403;28;20456;-76
2021/06/25 03:32:47;;;;;;;145.77;60.70;;;16.20;99.90;;;;;;8360082;28;20195;-77
2021/06/25 03:36:49;;;;;;;159.13;68.30;;;16.10;99.90;;;;;;8357526;28;20976;-76
2021/06/25 03:40:50;;;;;;;145.97;66.33;;;16.10;99.90;;;;;;8352338;28;20543;-76
2021/06/25 03:44:51;;;;;;;145.70;65.70;;;16.10;99.90;;;;;;8354798;28;20440;-76
2021/06/25 03:48:51;;;;;;;148.73;66.77;;;16.10;99.90;;;;;;8349018;28;20466;-76
2021/06/25 03:52:52;;;;;;;144.17;66.83;;;16.20;99.90;;;;;;8348029;28;20234;-76
2021/06/25 03:56:53;;;;;;;142.10;65.00;;;16.20;99.90;;;;;;8347044;28;20686;-77
2021/06/25 04:00:53;;;;;;;151.13;62.93;;;16.30;99.90;;;;;;8352548;28;20274;-77
2021/06/25 04:04:54;;;;;;;132.20;63.50;;;16.40;99.90;;;;;;8360317;28;20647;-77
2021/06/25 04:08:55;;;;;;;119.20;65.57;;;16.50;99.90;;;;;;8359186;28;20674;-77
2021/06/25 04:12:55;;;;;;;141.83;67.13;;;16.60;99.90;;;;;;8360624;28;20579;-77
2021/06/25 04:16:57;;;;;;;125.83;61.07;;;16.60;99.90;;;;;;8360030;28;20679;-77
2021/06/25 04:20:58;;;;;;;117.37;59.57;;;16.60;99.90;;;;;;8377949;28;20187;-77
2021/06/25 04:24:59;;;;;;;110.40;59.23;;;16.70;99.90;;;;;;8355473;28;20466;-77
2021/06/25 04:28:59;;;;;;;126.20;65.63;;;16.70;99.90;;;;;;8369806;28;20996;-76
2021/06/25 04:33:01;;;;;;;119.47;59.50;;;16.70;99.90;;;;;;8355987;28;20218;-77
2021/06/25 04:37:02;;;;;;;115.27;59.40;;;16.80;99.90;;;;;;8352054;28;20282;-77
2021/06/25 04:41:03;;;;;;;110.10;59.00;;;16.80;99.90;;;;;;8358326;28;20469;-77
2021/06/25 04:45:05;;;;;;;116.90;61.17;;;16.90;99.90;;;;;;8353967;28;20442;-76
2021/06/25 04:49:05;;;;;;;107.13;54.87;;;17.10;99.90;;;;;;8361334;28;20786;-77
2021/06/25 04:53:07;;;;;;;97.67;49.30;;;17.40;99.90;;;;;;8361760;28;20999;-77
2021/06/25 04:57:08;;;;;;;98.90;52.20;;;17.60;99.90;;;;;;8356343;28;20240;-77
2021/06/25 05:01:08;;;;;;;91.70;53.23;;;17.80;99.90;;;;;;8355616;28;20435;-77
2021/06/25 05:05:09;;;;;;;90.97;53.73;;;17.90;99.90;;;;;;8362471;28;20441;-77
2021/06/25 05:09:10;;;;;;;103.23;51.50;;;18.00;99.90;;;;;;8355757;28;20273;-77
2021/06/25 05:13:13;;;;;;;88.23;49.63;;;18.00;99.90;;;;;;8351342;28;20943;-77
2021/06/25 05:17:13;;;;;;;99.80;50.97;;;18.00;99.90;;;;;;8362626;28;20177;-78
2021/06/25 05:21:14;;;;;;;91.13;52.40;;;18.00;99.90;;;;;;8361761;28;20454;-79
2021/06/25 05:25:16;;;;;;;95.93;52.30;;;18.10;99.90;;;;;;8368786;28;20189;-76
2021/06/25 05:29:16;;;;;;;89.57;49.83;;;18.20;99.90;;;;;;8361181;28;20178;-78
2021/06/25 05:33:17;;;;;;;83.37;49.27;;;18.30;99.90;;;;;;8356023;28;20468;-77
2021/06/25 05:37:18;;;;;;;84.27;49.43;;;18.20;99.60;;;;;;8365922;28;20245;-77
2021/06/25 05:41:18;;;;;;;89.20;50.23;;;18.30;99.60;;;;;;8357011;28;20217;-78
2021/06/25 05:45:19;;;;;;;86.70;48.60;;;18.30;98.90;;;;;;8348151;28;20184;-78
2021/06/25 05:49:21;;;;;;;73.63;45.80;;;18.40;99.10;;;;;;8359663;28;20210;-77
2021/06/25 05:53:21;;;;;;;86.50;48.10;;;18.50;99.20;;;;;;8363490;28;20463;-77
2021/06/25 05:57:22;;;;;;;89.77;50.60;;;18.60;99.00;;;;;;8345920;28;20457;-77
2021/06/25 06:01:23;;;;;;;83.27;47.80;;;18.70;99.30;;;;;;8362114;28;20646;-77
2021/06/25 06:05:23;;;;;;;89.57;51.90;;;18.80;99.10;;;;;;8360588;28;20217;-78
2021/06/25 06:09:26;;;;;;;97.37;48.63;;;18.80;98.70;;;;;;8358281;28;20272;-78
2021/06/25 06:13:27;;;;;;;86.43;52.97;;;18.80;98.80;;;;;;8352610;28;20210;-76
2021/06/25 06:17:28;;;;;;;89.97;50.27;;;18.90;99.00;;;;;;8347875;28;20441;-78
2021/06/25 06:31:10;;;;;;;86.13;50.60;;;19.20;98.60;;;;;;8351969;28;20190;-76
2021/06/25 06:34:33;;;;;;;60.33;36.77;;;19.80;95.40;;;;;;8366227;28;20542;-76
2021/06/25 06:38:35;;;;;;;58.70;36.63;;;19.90;95.30;;;;;;8363204;28;20438;-76
2021/06/25 06:42:35;;;;;;;64.57;35.67;;;20.10;95.20;;;;;;8360612;28;21165;-77
2021/06/25 06:46:36;;;;;;;54.63;34.30;;;20.40;94.90;;;;;;8364491;28;20441;-77
2021/06/25 06:50:37;;;;;;;45.13;28.90;;;20.70;94.10;;;;;;8369204;28;20191;-77
2021/06/25 06:54:38;;;;;;;35.93;24.13;;;21.00;93.50;;;;;;8364591;28;20473;-78
2021/06/25 06:58:41;;;;;;;39.43;27.20;;;21.20;92.20;;;;;;8359944;28;20179;-76
2021/06/25 07:02:45;;;;;;;39.40;21.57;;;21.30;92.00;;;;;;8353250;28;20200;-77
2021/06/25 07:06:45;;;;;;;24.83;18.83;;;21.40;90.60;;;;;;8353161;28;20452;-77
2021/06/25 07:10:46;;;;;;;36.20;20.87;;;21.40;89.00;;;;;;8356347;28;20502;-76
2021/06/25 07:14:47;;;;;;;38.60;23.60;;;21.40;88.60;;;;;;8360617;28;20391;-77
2021/06/25 07:18:48;;;;;;;32.23;19.93;;;21.30;89.90;;;;;;8359882;28;20233;-76
2021/06/25 07:22:51;;;;;;;29.00;19.90;;;21.40;90.10;;;;;;8358651;28;20199;-77
2021/06/25 07:26:51;;;;;;;30.70;18.47;;;21.60;88.40;;;;;;8354529;28;20199;-76
2021/06/25 07:30:53;;;;;;;27.67;18.10;;;21.70;87.70;;;;;;8359342;28;20442;-77
2021/06/25 07:34:53;;;;;;;22.10;17.00;;;21.70;85.20;;;;;;8360943;28;20310;-77
2021/06/25 07:38:54;;;;;;;23.17;15.80;;;21.70;86.30;;;;;;8354893;28;20500;-77
2021/06/25 07:42:55;;;;;;;21.97;17.90;;;21.80;85.60;;;;;;8357463;28;20201;-77
2021/06/25 07:46:55;;;;;;;21.70;16.30;;;21.90;84.90;;;;;;8349707;28;20220;-77
2021/06/25 07:50:56;;;;;;;24.10;16.30;;;22.00;85.00;;;;;;8355904;28;20824;-77
2021/06/25 07:54:57;;;;;;;24.50;18.30;;;22.10;84.80;;;;;;8363065;28;20253;-77
2021/06/25 07:58:57;;;;;;;26.03;18.60;;;22.30;84.20;;;;;;8356283;28;20190;-77
2021/06/25 08:02:58;;;;;;;19.33;15.00;;;22.60;84.70;;;;;;8357057;28;20190;-77
2021/06/25 08:06:59;;;;;;;26.33;15.47;;;22.80;82.60;;;;;;8351287;28;20197;-76
2021/06/25 08:10:59;;;;;;;15.17;12.00;;;23.10;82.80;;;;;;8356609;28;20206;-78
2021/06/25 08:15:02;;;;;;;17.90;12.90;;;23.30;80.20;;;;;;8356484;28;20214;-78
2021/06/25 08:19:03;;;;;;;18.27;13.90;;;23.20;78.00;;;;;;8357374;28;20282;-76
2021/06/25 08:23:04;;;;;;;22.70;13.50;;;23.10;78.50;;;;;;8358676;28;20412;-77
2021/06/25 08:27:06;;;;;;;16.60;12.23;;;23.20;77.40;;;;;;8357909;28;20599;-78
2021/06/25 08:31:07;;;;;;;16.30;12.33;;;23.40;76.00;;;;;;8355682;28;20219;-78
2021/06/25 08:35:09;;;;;;;17.03;12.20;;;23.50;76.10;;;;;;8368379;28;20451;-78
2021/06/25 08:39:10;;;;;;;14.93;12.83;;;23.50;75.40;;;;;;8362751;28;20211;-77
2021/06/25 08:43:11;;;;;;;17.10;11.70;;;23.60;74.30;;;;;;8364398;28;20447;-77
2021/06/25 08:47:12;;;;;;;13.90;11.20;;;23.60;73.40;;;;;;8366223;28;20416;-78
2021/06/25 08:51:12;;;;;;;15.97;11.27;;;23.70;73.30;;;;;;8365628;28;20233;-77
2021/06/25 08:55:15;;;;;;;17.70;12.70;;;23.80;70.30;;;;;;8362099;28;20199;-78
2021/06/25 08:59:19;;;;;;;12.13;10.93;;;23.70;71.20;;;;;;8356826;28;20265;-76
2021/06/25 09:03:22;;;;;;;13.67;11.17;;;23.90;71.40;;;;;;8341497;28;20545;-76
2021/06/25 09:07:39;;;;;;;18.87;13.47;;;24.20;70.40;;;;;;8353704;28;20618;-77
2021/06/25 09:11:41;;;;;;;12.90;9.80;;;24.60;69.40;;;;;;8355495;28;20440;-77
2021/06/25 09:15:43;;;;;;;14.33;10.83;;;25.00;68.90;;;;;;8350946;28;20504;-76
2021/06/25 09:19:43;;;;;;;21.17;11.33;;;25.50;67.60;;;;;;8358064;28;20473;-76
2021/06/25 09:23:44;;;;;;;10.87;9.17;;;26.00;67.60;;;;;;8348813;28;20442;-78
2021/06/25 09:27:56;;;;;;;14.00;9.67;;;26.40;64.60;;;;;;8346718;28;20192;-78
2021/06/25 09:32:14;;;;;;;9.83;8.93;;;26.30;61.90;;;;;;8355243;28;20328;-78
2021/06/25 09:36:30;;;;;;;12.80;8.13;;;26.30;62.80;;;;;;8356818;28;20451;-77
2021/06/25 09:40:37;;;;;;;12.20;8.10;;;26.40;64.20;;;;;;8347252;28;20465;-76
2021/06/25 09:44:38;;;;;;;9.10;8.20;;;26.80;62.30;;;;;;8360160;28;20444;-79
2021/06/25 09:48:50;;;;;;;9.13;8.20;;;27.10;59.70;;;;;;8361858;28;20443;-78
2021/06/25 09:52:58;;;;;;;9.67;8.67;;;27.30;59.00;;;;;;8356007;28;20272;-77
2021/06/25 10:01:27;;;;;;;10.67;7.03;;;27.60;56.90;;;;;;8358726;28;20973;-77
2021/06/25 10:05:29;;;;;;;9.07;6.47;;;28.00;56.10;;;;;;8345211;28;20441;-77
2021/06/25 10:09:30;;;;;;;7.43;6.63;;;28.40;56.00;;;;;;8352776;28;20446;-78
2021/06/25 10:13:33;;;;;;;10.30;7.60;;;28.90;53.10;;;;;;8355348;28;20496;-78
2021/06/25 10:17:36;;;;;;;8.53;7.47;;;28.60;53.00;;;;;;8358481;28;20615;-77
2021/06/25 10:21:39;;;;;;;10.20;7.33;;;28.20;53.00;;;;;;8352012;28;20438;-78
2021/06/25 10:25:43;;;;;;;7.83;6.40;;;27.70;53.90;;;;;;8362222;28;20442;-76
2021/06/25 10:29:45;;;;;;;8.37;6.77;;;27.60;56.20;;;;;;8349599;28;20438;-78
2021/06/25 10:33:46;;;;;;;5.90;5.30;;;27.90;54.60;;;;;;8345566;28;20462;-77
2021/06/25 10:37:47;;;;;;;6.73;5.87;;;28.40;52.10;;;;;;8358356;28;20433;-79
2021/06/25 10:41:59;;;;;;;5.03;4.53;;;28.80;49.50;;;;;;8343691;28;20285;-77
2021/06/25 10:45:59;;;;;;;5.30;4.80;;;29.10;50.90;;;;;;8353756;28;20477;-77
2021/06/25 10:50:00;;;;;;;6.20;4.60;;;29.30;51.30;;;;;;8356550;28;20904;-77
2021/06/25 10:54:13;;;;;;;5.20;4.70;;;29.60;49.80;;;;;;8352680;28;20207;-77
2021/06/25 10:58:22;;;;;;;5.30;4.57;;;29.70;49.80;;;;;;8343502;28;20306;-77
2021/06/25 11:02:43;;;;;;;5.37;4.90;;;29.70;48.80;;;;;;8350162;28;20184;-78
2021/06/25 11:06:50;;;;;;;5.37;4.60;;;29.70;48.30;;;;;;8354202;28;20195;-76
2021/06/25 11:10:53;;;;;;;6.07;5.50;;;29.70;48.00;;;;;;8354682;28;20437;-77
2021/06/25 11:15:05;;;;;;;4.87;4.43;;;29.90;50.70;;;;;;8351364;28;20230;-78
2021/06/25 11:19:33;;;;;;;5.87;5.17;;;30.20;49.20;;;;;;8350434;28;20436;-78
2021/06/25 11:23:40;;;;;;;5.60;4.60;;;30.00;45.80;;;;;;8352457;28;20495;-78
2021/06/25 11:28:17;;;;;;;4.80;4.40;;;30.00;47.60;;;;;;8354901;28;20232;-78
2021/06/25 11:32:29;;;;;;;4.90;4.50;;;30.50;47.40;;;;;;8352233;28;20438;-78
2021/06/25 11:36:48;;;;;;;5.57;5.07;;;30.80;45.70;;;;;;8342630;28;20219;-80
2021/06/25 11:40:50;;;;;;;4.90;4.50;;;31.00;46.00;;;;;;8360437;28;20230;-80
2021/06/25 11:44:51;;;;;;;5.87;4.73;;;31.10;45.20;;;;;;8359644;28;20207;-80
2021/06/25 11:48:59;;;;;;;5.33;4.93;;;31.20;45.60;;;;;;8362986;28;20445;-80
2021/06/25 11:53:01;;;;;;;6.10;5.10;;;31.30;45.70;;;;;;8347782;28;20477;-80
2021/06/25 11:57:06;;;;;;;6.97;4.10;;;31.10;44.80;;;;;;8345441;28;20487;-80
2021/06/25 12:01:08;;;;;;;7.10;5.23;;;31.00;46.90;;;;;;8353600;28;20445;-83
2021/06/25 12:05:11;;;;;;;5.50;5.00;;;31.40;47.10;;;;;;8337532;28;20467;-78
2021/06/25 12:09:12;;;;;;;6.80;4.43;;;31.90;46.20;;;;;;8347633;28;20446;-79
2021/06/25 12:13:15;;;;;;;5.17;4.77;;;32.10;44.60;;;;;;8359249;28;20560;-79
2021/06/25 12:17:16;;;;;;;7.77;6.70;;;31.20;44.20;;;;;;8366097;28;20285;-78
2021/06/25 12:21:19;;;;;;;6.90;6.20;;;30.10;46.40;;;;;;8360947;28;20448;-82
2021/06/25 12:25:40;;;;;;;8.03;5.33;;;30.10;47.40;;;;;;8370340;28;21284;-81
2021/06/25 12:29:42;;;;;;;7.13;5.63;;;29.70;48.30;;;;;;8370327;28;20430;-81
2021/06/25 12:33:43;;;;;;;7.00;5.90;;;29.80;46.90;;;;;;8375609;28;20536;-82
2021/06/25 12:37:49;;;;;;;8.17;6.20;;;29.50;46.60;;;;;;8374202;28;20460;-81
2021/06/25 12:41:50;;;;;;;6.87;6.20;;;29.30;46.40;;;;;;8365699;28;20288;-81
2021/06/25 12:45:58;;;;;;;7.57;6.77;;;28.80;47.50;;;;;;8364082;28;20473;-81
2021/06/25 12:49:58;;;;;;;6.53;6.03;;;28.50;48.20;;;;;;8357684;28;21327;-80
2021/06/25 12:54:01;;;;;;;7.37;6.63;;;28.70;48.80;;;;;;8358676;28;20441;-81
2021/06/25 12:58:02;;;;;;;7.83;7.10;;;28.90;48.20;;;;;;8342013;28;20948;-81
2021/06/25 13:02:03;;;;;;;8.27;7.03;;;28.70;50.40;;;;;;8358137;28;21047;-81
2021/06/25 13:06:23;;;;;;;8.90;7.63;;;28.80;48.70;;;;;;8359473;28;20691;-82
2021/06/25 13:10:26;;;;;;;6.47;5.80;;;28.90;49.10;;;;;;8369758;28;20445;-82
2021/06/25 13:14:33;;;;;;;6.17;5.73;;;29.30;48.60;;;;;;8380661;28;20438;-79
2021/06/25 13:18:37;;;;;;;6.40;5.00;;;29.40;49.20;;;;;;8370859;28;20438;-81
2021/06/25 13:22:59;;;;;;;10.00;6.70;;;29.10;49.10;;;;;;8366626;28;20564;-81
2021/06/25 13:27:03;;;;;;;7.50;6.80;;;28.90;47.80;;;;;;8364834;28;20965;-82
2021/06/25 13:31:06;;;;;;;6.50;5.23;;;29.00;49.10;;;;;;8367818;28;20469;-82
2021/06/25 13:35:07;;;;;;;11.10;6.90;;;29.30;48.70;;;;;;8362301;28;20445;-81
2021/06/25 13:39:08;;;;;;;7.20;6.37;;;29.70;48.40;;;;;;8358711;28;20479;-82
2021/06/25 13:43:10;;;;;;;5.90;5.30;;;30.10;49.00;;;;;;8364186;28;20531;-81
2021/06/25 13:47:13;;;;;;;6.67;5.67;;;30.50;48.20;;;;;;8370931;28;20257;-83
2021/06/25 13:51:14;;;;;;;7.87;5.90;;;30.40;47.70;;;;;;8367567;28;20820;-83
2021/06/25 13:55:26;;;;;;;7.10;6.40;;;30.00;47.10;;;;;;8371972;28;20452;-82
2021/06/25 13:59:40;;;;;;;5.57;5.10;;;30.00;47.40;;;;;;8367874;28;20198;-83
2021/06/25 14:03:51;;;;;;;6.40;5.80;;;29.50;49.30;;;;;;8364289;28;20465;-82
2021/06/25 14:08:00;;;;;;;6.13;5.50;;;29.80;48.30;;;;;;8370871;28;20962;-83
2021/06/25 14:12:13;;;;;;;6.60;4.97;;;29.80;48.40;;;;;;8369568;28;20614;-84
2021/06/25 14:16:24;;;;;;;6.10;5.50;;;29.60;48.90;;;;;;8367993;28;20509;-82
2021/06/25 14:20:25;;;;;;;5.77;5.20;;;29.80;48.50;;;;;;8374503;28;20450;-83
2021/06/25 14:24:26;;;;;;;5.80;5.40;;;30.00;47.40;;;;;;8370026;28;20466;-86
2021/06/25 14:28:29;;;;;;;6.20;5.60;;;30.20;47.70;;;;;;8357229;28;20480;-83
2021/06/25 14:32:30;;;;;;;5.40;4.90;;;30.30;48.30;;;;;;8363323;28;20176;-83
2021/06/25 14:36:33;;;;;;;6.33;5.70;;;30.40;48.10;;;;;;8372683;28;20445;-82
2021/06/25 14:40:35;;;;;;;5.53;4.63;;;30.30;47.50;;;;;;8367321;28;20214;-81
2021/06/25 14:44:36;;;;;;;6.30;5.37;;;30.20;46.90;;;;;;8362385;28;20537;-81
2021/06/25 14:48:38;;;;;;;6.50;5.97;;;29.60;47.90;;;;;;8358837;28;20452;-82
2021/06/25 14:52:38;;;;;;;7.80;5.90;;;29.30;48.00;;;;;;8358636;28;20718;-81
2021/06/25 14:56:39;;;;;;;5.83;5.23;;;29.40;47.90;;;;;;8362377;28;22943;-81
2021/06/25 15:00:42;;;;;;;5.97;5.40;;;29.40;48.10;;;;;;8358003;28;20191;-83
2021/06/25 15:04:43;;;;;;;6.43;5.30;;;29.30;48.30;;;;;;8360052;28;20211;-82
2021/06/25 15:08:44;;;;;;;6.30;5.80;;;29.10;48.00;;;;;;8361354;28;20475;-81
2021/06/25 15:12:44;;;;;;;8.40;5.00;;;28.60;48.80;;;;;;8358974;28;20219;-81
2021/06/25 15:16:46;;;;;;;6.30;5.60;;;29.00;49.30;;;;;;8361855;28;20203;-82
2021/06/25 15:20:49;;;;;;;6.37;5.63;;;29.60;49.20;;;;;;8369600;28;20456;-82
2021/06/25 15:24:50;;;;;;;6.27;5.63;;;30.20;49.10;;;;;;8372681;28;20199;-79
2021/06/25 15:28:52;;;;;;;6.07;5.60;;;30.30;47.90;;;;;;8365435;28;20541;-82
2021/06/25 15:32:53;;;;;;;6.97;5.93;;;30.40;47.80;;;;;;8370165;28;20525;-83
2021/06/25 15:36:59;;;;;;;5.87;5.37;;;30.70;48.60;;;;;;8348451;28;20492;-83
2021/06/25 15:41:00;;;;;;;6.50;6.00;;;30.80;48.00;;;;;;8367357;28;20493;-82
2021/06/25 15:45:03;;;;;;;7.30;6.03;;;30.90;46.70;;;;;;8369826;28;20472;-83
2021/06/25 15:49:05;;;;;;;5.03;4.63;;;30.60;47.20;;;;;;8365410;28;20180;-80
2021/06/25 15:53:05;;;;;;;8.50;5.63;;;30.30;46.60;;;;;;8362551;28;20453;-77
2021/06/25 15:57:06;;;;;;;7.03;6.43;;;30.30;47.50;;;;;;8363098;28;20460;-82
2021/06/25 16:01:07;;;;;;;5.83;5.33;;;30.40;47.20;;;;;;8354811;28;20197;-79
2021/06/25 16:05:08;;;;;;;5.17;4.70;;;30.70;46.40;;;;;;8362233;28;20217;-79
2021/06/25 16:09:13;;;;;;;7.10;6.40;;;30.40;47.20;;;;;;8360244;28;20180;-77
2021/06/25 16:13:22;;;;;;;5.57;5.17;;;30.20;47.70;;;;;;8359517;28;20446;-78
2021/06/25 16:17:23;;;;;;;6.03;5.20;;;30.20;47.60;;;;;;8362253;28;20437;-80
